sensor_id;sensor_type;location;lat;lon;timestamp;temperature;humidity
22629;DHT22;11481;53.694;9.910;2022-08-21T00:01:35;19.10;99.90
22629;DHT22;11481;53.694;9.910;2022-08-21T00:04:09;19.20;99.90
22629;DHT22;11481;53.694;9.910;2022-08-21T00:06:36;19.30;99.90
22629;DHT22;11481;53.694;9.910;2022-08-21T00:09:06;19.30;99.90
22629;DHT22;11481;53.694;9.910;2022-08-21T00:11:37;19.20;99.90
22629;DHT22;11481;53.694;9.910;2022-08-21T00:14:06;19.20;99.90
22629;DHT22;11481;53.694;9.910;2022-08-21T00:16:34;19.20;99.90
22629;DHT22;11481;53.694;9.910;2022-08-21T00:19:02;19.20;99.90
22629;DHT22;11481;53.694;9.910;2022-08-21T00:21:29;19.10;99.90
22629;DHT22;11481;53.694;9.910;2022-08-21T00:23:55;19.00;99.90
22629;DHT22;11481;53.694;9.910;2022-08-21T00:26:22;18.80;99.90
22629;DHT22;11481;53.694;9.910;2022-08-21T00:28:49;18.70;99.90
22629;DHT22;11481;53.694;9.910;2022-08-21T00:31:16;18.70;99.90
22629;DHT22;11481;53.694;9.910;2022-08-21T00:33:45;18.70;99.90
22629;DHT22;11481;53.694;9.910;2022-08-21T00:36:12;18.40;99.90
22629;DHT22;11481;53.694;9.910;2022-08-21T00:38:39;18.10;99.90
22629;DHT22;11481;53.694;9.910;2022-08-21T00:41:08;18.10;99.90
22629;DHT22;11481;53.694;9.910;2022-08-21T00:43:55;18.20;99.90
22629;DHT22;11481;53.694;9.910;2022-08-21T00:46:22;18.20;99.90
22629;DHT22;11481;53.694;9.910;2022-08-21T00:48:54;18.30;99.90
22629;DHT22;11481;53.694;9.910;2022-08-21T00:51:49;18.40;99.90
22629;DHT22;11481;53.694;9.910;2022-08-21T00:54:17;18.30;99.90
22629;DHT22;11481;53.694;9.910;2022-08-21T00:56:51;18.30;99.90
22629;DHT22;11481;53.694;9.910;2022-08-21T00:59:20;18.20;99.90
22629;DHT22;11481;53.694;9.910;2022-08-21T01:01:47;18.10;99.90
22629;DHT22;11481;53.694;9.910;2022-08-21T01:04:14;18.00;99.90
22629;DHT22;11481;53.694;9.910;2022-08-21T01:06:43;17.90;99.90
22629;DHT22;11481;53.694;9.910;2022-08-21T01:09:11;17.90;99.90
22629;DHT22;11481;53.694;9.910;2022-08-21T01:11:37;17.80;99.90
22629;DHT22;11481;53.694;9.910;2022-08-21T01:14:04;17.80;99.90
22629;DHT22;11481;53.694;9.910;2022-08-21T01:16:32;17.80;99.90
22629;DHT22;11481;53.694;9.910;2022-08-21T01:18:59;17.90;99.90
22629;DHT22;11481;53.694;9.910;2022-08-21T01:21:26;17.90;99.90
22629;DHT22;11481;53.694;9.910;2022-08-21T01:23:55;17.80;99.90
22629;DHT22;11481;53.694;9.910;2022-08-21T01:26:25;17.80;99.90
22629;DHT22;11481;53.694;9.910;2022-08-21T01:31:50;17.70;99.90
22629;DHT22;11481;53.694;9.910;2022-08-21T01:34:17;17.70;99.90
22629;DHT22;11481;53.694;9.910;2022-08-21T01:36:45;17.70;99.90
22629;DHT22;11481;53.694;9.910;2022-08-21T01:39:13;17.70;99.90
22629;DHT22;11481;53.694;9.910;2022-08-21T01:41:39;17.60;99.90
22629;DHT22;11481;53.694;9.910;2022-08-21T01:44:06;17.60;99.90
22629;DHT22;11481;53.694;9.910;2022-08-21T01:46:33;17.60;99.90
22629;DHT22;11481;53.694;9.910;2022-08-21T01:48:59;17.50;99.90
22629;DHT22;11481;53.694;9.910;2022-08-21T01:51:26;17.50;99.90
22629;DHT22;11481;53.694;9.910;2022-08-21T01:53:53;17.40;99.90
22629;DHT22;11481;53.694;9.910;2022-08-21T01:56:19;17.40;99.90
22629;DHT22;11481;53.694;9.910;2022-08-21T01:58:47;17.40;99.90
22629;DHT22;11481;53.694;9.910;2022-08-21T02:01:14;17.30;99.90
22629;DHT22;11481;53.694;9.910;2022-08-21T02:03:41;17.30;99.90
22629;DHT22;11481;53.694;9.910;2022-08-21T02:06:13;17.30;99.90
22629;DHT22;11481;53.694;9.910;2022-08-21T02:08:41;17.30;99.90
22629;DHT22;11481;53.694;9.910;2022-08-21T02:11:07;17.30;99.90
22629;DHT22;11481;53.694;9.910;2022-08-21T02:13:34;17.20;99.90
22629;DHT22;11481;53.694;9.910;2022-08-21T02:16:01;17.20;99.90
22629;DHT22;11481;53.694;9.910;2022-08-21T02:18:28;17.10;99.90
22629;DHT22;11481;53.694;9.910;2022-08-21T02:20:55;17.10;99.90
22629;DHT22;11481;53.694;9.910;2022-08-21T02:23:23;17.00;99.90
22629;DHT22;11481;53.694;9.910;2022-08-21T02:25:57;17.00;99.90
22629;DHT22;11481;53.694;9.910;2022-08-21T02:28:24;17.00;99.90
22629;DHT22;11481;53.694;9.910;2022-08-21T02:30:55;17.00;99.90
22629;DHT22;11481;53.694;9.910;2022-08-21T02:33:22;16.90;99.90
22629;DHT22;11481;53.694;9.910;2022-08-21T02:35:50;17.00;99.90
22629;DHT22;11481;53.694;9.910;2022-08-21T02:38:22;17.00;99.90
22629;DHT22;11481;53.694;9.910;2022-08-21T02:40:50;16.90;99.90
22629;DHT22;11481;53.694;9.910;2022-08-21T02:43:18;16.90;99.90
22629;DHT22;11481;53.694;9.910;2022-08-21T02:45:46;16.90;99.90
22629;DHT22;11481;53.694;9.910;2022-08-21T02:48:17;16.80;99.90
22629;DHT22;11481;53.694;9.910;2022-08-21T02:50:47;16.80;99.90
22629;DHT22;11481;53.694;9.910;2022-08-21T02:53:15;16.80;99.90
22629;DHT22;11481;53.694;9.910;2022-08-21T02:55:45;16.80;99.90
22629;DHT22;11481;53.694;9.910;2022-08-21T02:58:15;16.80;99.90
22629;DHT22;11481;53.694;9.910;2022-08-21T03:00:42;16.70;99.90
22629;DHT22;11481;53.694;9.910;2022-08-21T03:03:10;16.70;99.90
22629;DHT22;11481;53.694;9.910;2022-08-21T03:05:38;16.70;99.90
22629;DHT22;11481;53.694;9.910;2022-08-21T03:08:07;16.60;99.90
22629;DHT22;11481;53.694;9.910;2022-08-21T03:10:38;16.60;99.90
22629;DHT22;11481;53.694;9.910;2022-08-21T03:13:06;16.60;99.90
22629;DHT22;11481;53.694;9.910;2022-08-21T03:15:33;16.50;99.90
22629;DHT22;11481;53.694;9.910;2022-08-21T03:18:01;16.50;99.90
22629;DHT22;11481;53.694;9.910;2022-08-21T03:20:28;16.40;99.90
22629;DHT22;11481;53.694;9.910;2022-08-21T03:22:55;16.40;99.90
22629;DHT22;11481;53.694;9.910;2022-08-21T03:25:24;16.40;99.90
22629;DHT22;11481;53.694;9.910;2022-08-21T03:28:10;16.40;99.90
22629;DHT22;11481;53.694;9.910;2022-08-21T03:30:39;16.30;99.90
22629;DHT22;11481;53.694;9.910;2022-08-21T03:33:06;16.20;99.90
22629;DHT22;11481;53.694;9.910;2022-08-21T03:35:33;16.20;99.90
22629;DHT22;11481;53.694;9.910;2022-08-21T03:38:00;16.20;99.90
22629;DHT22;11481;53.694;9.910;2022-08-21T03:40:26;16.10;99.90
22629;DHT22;11481;53.694;9.910;2022-08-21T03:42:53;16.00;99.90
22629;DHT22;11481;53.694;9.910;2022-08-21T03:45:20;16.00;99.90
22629;DHT22;11481;53.694;9.910;2022-08-21T03:47:52;16.00;99.90
22629;DHT22;11481;53.694;9.910;2022-08-21T03:50:19;15.90;99.90
22629;DHT22;11481;53.694;9.910;2022-08-21T03:52:45;15.90;99.90
22629;DHT22;11481;53.694;9.910;2022-08-21T03:55:12;15.90;99.90
22629;DHT22;11481;53.694;9.910;2022-08-21T03:57:39;15.90;99.90
22629;DHT22;11481;53.694;9.910;2022-08-21T04:00:06;15.80;99.90
22629;DHT22;11481;53.694;9.910;2022-08-21T04:02:35;15.80;99.90
22629;DHT22;11481;53.694;9.910;2022-08-21T04:05:02;15.70;99.90
22629;DHT22;11481;53.694;9.910;2022-08-21T04:07:29;15.80;99.90
22629;DHT22;11481;53.694;9.910;2022-08-21T04:09:56;15.80;99.90
22629;DHT22;11481;53.694;9.910;2022-08-21T04:12:22;15.70;99.90
22629;DHT22;11481;53.694;9.910;2022-08-21T04:14:50;15.70;99.90
22629;DHT22;11481;53.694;9.910;2022-08-21T04:17:18;15.70;99.90
22629;DHT22;11481;53.694;9.910;2022-08-21T04:19:44;15.70;99.90
22629;DHT22;11481;53.694;9.910;2022-08-21T04:22:18;15.70;99.90
22629;DHT22;11481;53.694;9.910;2022-08-21T04:24:45;15.70;99.90
22629;DHT22;11481;53.694;9.910;2022-08-21T04:27:11;15.70;99.90
22629;DHT22;11481;53.694;9.910;2022-08-21T04:29:38;15.70;99.90
22629;DHT22;11481;53.694;9.910;2022-08-21T04:32:06;15.70;99.90
22629;DHT22;11481;53.694;9.910;2022-08-21T04:34:32;15.70;99.90
22629;DHT22;11481;53.694;9.910;2022-08-21T04:36:59;15.70;99.90
22629;DHT22;11481;53.694;9.910;2022-08-21T04:39:26;15.80;99.90
22629;DHT22;11481;53.694;9.910;2022-08-21T04:41:55;15.90;99.90
22629;DHT22;11481;53.694;9.910;2022-08-21T04:44:22;15.80;99.90
22629;DHT22;11481;53.694;9.910;2022-08-21T04:46:49;15.90;99.90
22629;DHT22;11481;53.694;9.910;2022-08-21T04:49:16;15.90;99.90
22629;DHT22;11481;53.694;9.910;2022-08-21T04:51:45;15.90;99.90
22629;DHT22;11481;53.694;9.910;2022-08-21T04:54:15;15.80;99.90
22629;DHT22;11481;53.694;9.910;2022-08-21T04:56:48;15.70;99.90
22629;DHT22;11481;53.694;9.910;2022-08-21T04:59:20;15.70;99.90
22629;DHT22;11481;53.694;9.910;2022-08-21T05:01:47;15.70;99.90
22629;DHT22;11481;53.694;9.910;2022-08-21T05:04:16;15.80;99.90
22629;DHT22;11481;53.694;9.910;2022-08-21T05:06:46;15.80;99.90
22629;DHT22;11481;53.694;9.910;2022-08-21T05:09:16;15.90;99.90
22629;DHT22;11481;53.694;9.910;2022-08-21T05:11:44;15.90;99.90
22629;DHT22;11481;53.694;9.910;2022-08-21T05:14:11;16.00;99.90
22629;DHT22;11481;53.694;9.910;2022-08-21T05:16:38;16.00;99.90
22629;DHT22;11481;53.694;9.910;2022-08-21T05:19:06;16.10;99.90
22629;DHT22;11481;53.694;9.910;2022-08-21T05:21:39;16.20;99.90
22629;DHT22;11481;53.694;9.910;2022-08-21T05:24:06;16.20;99.90
22629;DHT22;11481;53.694;9.910;2022-08-21T05:26:34;16.30;99.90
22629;DHT22;11481;53.694;9.910;2022-08-21T05:29:12;16.30;99.90
22629;DHT22;11481;53.694;9.910;2022-08-21T05:31:40;16.40;99.90
22629;DHT22;11481;53.694;9.910;2022-08-21T05:34:07;16.40;99.90
22629;DHT22;11481;53.694;9.910;2022-08-21T05:36:34;16.40;99.90
22629;DHT22;11481;53.694;9.910;2022-08-21T05:39:02;16.50;99.90
22629;DHT22;11481;53.694;9.910;2022-08-21T05:41:29;16.50;99.90
22629;DHT22;11481;53.694;9.910;2022-08-21T05:43:55;16.60;99.90
22629;DHT22;11481;53.694;9.910;2022-08-21T05:46:23;16.60;99.90
22629;DHT22;11481;53.694;9.910;2022-08-21T05:48:49;16.70;99.90
22629;DHT22;11481;53.694;9.910;2022-08-21T05:51:16;16.80;99.90
22629;DHT22;11481;53.694;9.910;2022-08-21T05:53:44;16.90;99.90
22629;DHT22;11481;53.694;9.910;2022-08-21T05:56:12;17.00;99.90
22629;DHT22;11481;53.694;9.910;2022-08-21T05:58:39;17.00;99.90
22629;DHT22;11481;53.694;9.910;2022-08-21T06:01:06;17.10;99.90
22629;DHT22;11481;53.694;9.910;2022-08-21T06:03:37;17.20;99.90
22629;DHT22;11481;53.694;9.910;2022-08-21T06:06:04;17.20;99.90
22629;DHT22;11481;53.694;9.910;2022-08-21T06:08:31;17.30;99.90
22629;DHT22;11481;53.694;9.910;2022-08-21T06:10:59;17.30;99.90
22629;DHT22;11481;53.694;9.910;2022-08-21T06:13:26;17.40;99.90
22629;DHT22;11481;53.694;9.910;2022-08-21T06:18:29;17.40;99.90
22629;DHT22;11481;53.694;9.910;2022-08-21T06:20:55;17.50;99.90
22629;DHT22;11481;53.694;9.910;2022-08-21T06:23:23;17.50;99.90
22629;DHT22;11481;53.694;9.910;2022-08-21T06:25:58;17.60;99.90
22629;DHT22;11481;53.694;9.910;2022-08-21T06:28:25;17.70;99.90
22629;DHT22;11481;53.694;9.910;2022-08-21T06:30:52;17.70;99.90
22629;DHT22;11481;53.694;9.910;2022-08-21T06:33:19;17.70;99.90
22629;DHT22;11481;53.694;9.910;2022-08-21T06:35:45;17.80;99.90
22629;DHT22;11481;53.694;9.910;2022-08-21T06:38:12;17.90;99.90
22629;DHT22;11481;53.694;9.910;2022-08-21T06:40:39;18.00;99.90
22629;DHT22;11481;53.694;9.910;2022-08-21T06:43:15;18.00;99.90
22629;DHT22;11481;53.694;9.910;2022-08-21T06:45:43;18.10;99.90
22629;DHT22;11481;53.694;9.910;2022-08-21T06:48:10;18.20;99.90
22629;DHT22;11481;53.694;9.910;2022-08-21T06:50:42;18.20;99.90
22629;DHT22;11481;53.694;9.910;2022-08-21T06:53:15;18.20;99.90
22629;DHT22;11481;53.694;9.910;2022-08-21T06:55:42;18.30;99.90
22629;DHT22;11481;53.694;9.910;2022-08-21T06:58:09;18.30;99.90
22629;DHT22;11481;53.694;9.910;2022-08-21T07:00:40;18.40;99.90
22629;DHT22;11481;53.694;9.910;2022-08-21T07:03:15;18.50;99.90
22629;DHT22;11481;53.694;9.910;2022-08-21T07:05:42;18.40;99.90
22629;DHT22;11481;53.694;9.910;2022-08-21T07:08:08;18.40;99.90
22629;DHT22;11481;53.694;9.910;2022-08-21T07:10:35;18.50;99.90
22629;DHT22;11481;53.694;9.910;2022-08-21T07:13:02;18.60;99.90
22629;DHT22;11481;53.694;9.910;2022-08-21T07:15:29;18.60;99.90
22629;DHT22;11481;53.694;9.910;2022-08-21T07:18:00;18.70;99.90
22629;DHT22;11481;53.694;9.910;2022-08-21T07:20:29;18.90;99.90
22629;DHT22;11481;53.694;9.910;2022-08-21T07:22:57;19.00;99.90
22629;DHT22;11481;53.694;9.910;2022-08-21T07:25:26;19.10;99.90
22629;DHT22;11481;53.694;9.910;2022-08-21T07:27:53;19.20;99.90
22629;DHT22;11481;53.694;9.910;2022-08-21T07:30:20;19.30;99.90
22629;DHT22;11481;53.694;9.910;2022-08-21T07:32:47;19.50;99.90
22629;DHT22;11481;53.694;9.910;2022-08-21T07:35:17;19.60;99.90
22629;DHT22;11481;53.694;9.910;2022-08-21T07:37:44;19.70;99.90
22629;DHT22;11481;53.694;9.910;2022-08-21T07:40:11;19.80;99.90
22629;DHT22;11481;53.694;9.910;2022-08-21T07:42:42;19.90;99.90
22629;DHT22;11481;53.694;9.910;2022-08-21T07:45:09;20.00;99.90
22629;DHT22;11481;53.694;9.910;2022-08-21T07:47:36;20.10;99.90
22629;DHT22;11481;53.694;9.910;2022-08-21T07:50:09;20.20;99.90
22629;DHT22;11481;53.694;9.910;2022-08-21T07:52:35;20.30;99.90
22629;DHT22;11481;53.694;9.910;2022-08-21T07:55:03;20.40;99.90
22629;DHT22;11481;53.694;9.910;2022-08-21T07:57:32;20.40;99.90
22629;DHT22;11481;53.694;9.910;2022-08-21T07:59:59;20.50;99.90
22629;DHT22;11481;53.694;9.910;2022-08-21T08:02:28;20.70;99.90
22629;DHT22;11481;53.694;9.910;2022-08-21T08:04:59;20.80;99.90
22629;DHT22;11481;53.694;9.910;2022-08-21T08:07:27;20.90;99.90
22629;DHT22;11481;53.694;9.910;2022-08-21T08:09:54;21.00;99.90
22629;DHT22;11481;53.694;9.910;2022-08-21T08:12:21;21.10;99.90
22629;DHT22;11481;53.694;9.910;2022-08-21T08:14:49;21.10;99.90
22629;DHT22;11481;53.694;9.910;2022-08-21T08:17:15;21.10;99.90
22629;DHT22;11481;53.694;9.910;2022-08-21T08:19:42;21.10;99.90
22629;DHT22;11481;53.694;9.910;2022-08-21T08:22:14;21.20;99.90
22629;DHT22;11481;53.694;9.910;2022-08-21T08:24:41;21.10;99.90
22629;DHT22;11481;53.694;9.910;2022-08-21T08:27:08;21.20;99.90
22629;DHT22;11481;53.694;9.910;2022-08-21T08:29:35;21.20;99.90
22629;DHT22;11481;53.694;9.910;2022-08-21T08:32:03;21.30;99.90
22629;DHT22;11481;53.694;9.910;2022-08-21T08:34:30;21.30;99.90
22629;DHT22;11481;53.694;9.910;2022-08-21T08:36:56;21.20;99.90
22629;DHT22;11481;53.694;9.910;2022-08-21T08:39:25;21.20;99.90
22629;DHT22;11481;53.694;9.910;2022-08-21T08:42:16;21.10;99.90
22629;DHT22;11481;53.694;9.910;2022-08-21T08:45:08;21.20;99.90
22629;DHT22;11481;53.694;9.910;2022-08-21T08:47:38;21.30;99.90
22629;DHT22;11481;53.694;9.910;2022-08-21T08:52:49;21.30;99.90
22629;DHT22;11481;53.694;9.910;2022-08-21T08:55:22;21.40;99.90
22629;DHT22;11481;53.694;9.910;2022-08-21T08:57:53;21.50;99.90
22629;DHT22;11481;53.694;9.910;2022-08-21T09:00:22;21.70;99.90
22629;DHT22;11481;53.694;9.910;2022-08-21T09:02:52;21.80;99.90
22629;DHT22;11481;53.694;9.910;2022-08-21T09:05:29;21.80;99.90
22629;DHT22;11481;53.694;9.910;2022-08-21T09:11:02;21.80;99.90
22629;DHT22;11481;53.694;9.910;2022-08-21T09:19:36;21.90;99.90
22629;DHT22;11481;53.694;9.910;2022-08-21T09:25:15;21.90;99.90
22629;DHT22;11481;53.694;9.910;2022-08-21T09:27:43;21.80;99.90
22629;DHT22;11481;53.694;9.910;2022-08-21T09:30:11;21.70;99.90
22629;DHT22;11481;53.694;9.910;2022-08-21T09:32:38;21.90;99.90
22629;DHT22;11481;53.694;9.910;2022-08-21T09:35:18;22.00;99.90
22629;DHT22;11481;53.694;9.910;2022-08-21T09:38:04;22.00;99.90
22629;DHT22;11481;53.694;9.910;2022-08-21T09:40:43;22.00;99.90
22629;DHT22;11481;53.694;9.910;2022-08-21T09:43:18;22.00;99.90
22629;DHT22;11481;53.694;9.910;2022-08-21T09:45:47;22.30;99.90
22629;DHT22;11481;53.694;9.910;2022-08-21T09:48:24;22.60;99.90
22629;DHT22;11481;53.694;9.910;2022-08-21T09:51:11;22.60;99.90
22629;DHT22;11481;53.694;9.910;2022-08-21T09:53:42;22.60;99.90
22629;DHT22;11481;53.694;9.910;2022-08-21T09:56:37;22.60;99.90
22629;DHT22;11481;53.694;9.910;2022-08-21T09:59:29;22.70;99.90
22629;DHT22;11481;53.694;9.910;2022-08-21T10:02:25;23.00;99.90
22629;DHT22;11481;53.694;9.910;2022-08-21T10:04:56;22.90;99.90
22629;DHT22;11481;53.694;9.910;2022-08-21T10:07:25;22.80;99.90
22629;DHT22;11481;53.694;9.910;2022-08-21T10:10:06;22.70;99.90
22629;DHT22;11481;53.694;9.910;2022-08-21T10:15:47;22.40;99.90
22629;DHT22;11481;53.694;9.910;2022-08-21T10:18:43;22.30;99.90
22629;DHT22;11481;53.694;9.910;2022-08-21T10:21:39;22.40;99.90
22629;DHT22;11481;53.694;9.910;2022-08-21T10:24:24;22.60;99.90
22629;DHT22;11481;53.694;9.910;2022-08-21T10:27:14;22.70;99.90
22629;DHT22;11481;53.694;9.910;2022-08-21T10:37:41;22.70;99.90
22629;DHT22;11481;53.694;9.910;2022-08-21T10:43:16;22.70;99.90
22629;DHT22;11481;53.694;9.910;2022-08-21T10:48:47;23.20;99.90
22629;DHT22;11481;53.694;9.910;2022-08-21T10:54:11;22.90;99.90
22629;DHT22;11481;53.694;9.910;2022-08-21T10:56:47;22.70;99.90
22629;DHT22;11481;53.694;9.910;2022-08-21T11:02:10;23.10;99.90
22629;DHT22;11481;53.694;9.910;2022-08-21T11:04:52;23.30;99.90
22629;DHT22;11481;53.694;9.910;2022-08-21T11:07:26;23.50;99.90
22629;DHT22;11481;53.694;9.910;2022-08-21T11:10:15;23.70;99.90
22629;DHT22;11481;53.694;9.910;2022-08-21T11:13:35;23.60;99.90
22629;DHT22;11481;53.694;9.910;2022-08-21T11:18:47;23.90;99.90
22629;DHT22;11481;53.694;9.910;2022-08-21T11:21:36;23.90;99.90
22629;DHT22;11481;53.694;9.910;2022-08-21T11:29:48;23.80;99.90
22629;DHT22;11481;53.694;9.910;2022-08-21T11:40:46;23.90;99.90
22629;DHT22;11481;53.694;9.910;2022-08-21T11:43:41;23.80;99.90
22629;DHT22;11481;53.694;9.910;2022-08-21T11:46:29;23.80;99.90
22629;DHT22;11481;53.694;9.910;2022-08-21T11:52:13;23.80;99.90
22629;DHT22;11481;53.694;9.910;2022-08-21T11:57:21;23.60;99.90
22629;DHT22;11481;53.694;9.910;2022-08-21T12:00:05;23.80;99.90
22629;DHT22;11481;53.694;9.910;2022-08-21T12:02:42;24.00;99.90
22629;DHT22;11481;53.694;9.910;2022-08-21T12:05:22;23.90;99.90
22629;DHT22;11481;53.694;9.910;2022-08-21T12:08:56;24.00;99.90
22629;DHT22;11481;53.694;9.910;2022-08-21T12:11:10;24.10;99.90
22629;DHT22;11481;53.694;9.910;2022-08-21T12:13:39;24.30;99.90
22629;DHT22;11481;53.694;9.910;2022-08-21T12:16:27;24.40;99.90
22629;DHT22;11481;53.694;9.910;2022-08-21T12:19:09;24.40;99.90
22629;DHT22;11481;53.694;9.910;2022-08-21T12:22:06;24.40;99.90
22629;DHT22;11481;53.694;9.910;2022-08-21T12:24:39;24.60;99.90
22629;DHT22;11481;53.694;9.910;2022-08-21T12:27:22;24.80;99.90
22629;DHT22;11481;53.694;9.910;2022-08-21T12:30:00;24.50;99.90
22629;DHT22;11481;53.694;9.910;2022-08-21T12:35:40;24.60;99.90
22629;DHT22;11481;53.694;9.910;2022-08-21T12:40:48;24.20;99.90
22629;DHT22;11481;53.694;9.910;2022-08-21T12:43:46;24.40;99.90
22629;DHT22;11481;53.694;9.910;2022-08-21T12:46:29;24.60;99.90
22629;DHT22;11481;53.694;9.910;2022-08-21T12:49:08;24.70;99.90
22629;DHT22;11481;53.694;9.910;2022-08-21T12:54:40;25.20;99.90
22629;DHT22;11481;53.694;9.910;2022-08-21T12:57:31;24.80;99.90
22629;DHT22;11481;53.694;9.910;2022-08-21T13:00:12;24.50;99.90
22629;DHT22;11481;53.694;9.910;2022-08-21T13:02:48;24.40;99.90
22629;DHT22;11481;53.694;9.910;2022-08-21T13:05:35;24.30;99.90
22629;DHT22;11481;53.694;9.910;2022-08-21T13:08:10;24.30;99.90
22629;DHT22;11481;53.694;9.910;2022-08-21T13:10:41;24.10;99.90
22629;DHT22;11481;53.694;9.910;2022-08-21T13:13:26;24.10;99.90
22629;DHT22;11481;53.694;9.910;2022-08-21T13:16:04;24.30;99.90
22629;DHT22;11481;53.694;9.910;2022-08-21T13:21:38;24.40;99.90
22629;DHT22;11481;53.694;9.910;2022-08-21T13:24:35;24.40;99.90
22629;DHT22;11481;53.694;9.910;2022-08-21T13:27:28;24.40;99.90
22629;DHT22;11481;53.694;9.910;2022-08-21T13:32:44;24.60;99.90
22629;DHT22;11481;53.694;9.910;2022-08-21T13:35:50;24.60;99.90
22629;DHT22;11481;53.694;9.910;2022-08-21T13:38:08;24.70;99.90
22629;DHT22;11481;53.694;9.910;2022-08-21T13:40:51;24.50;99.90
22629;DHT22;11481;53.694;9.910;2022-08-21T13:43:21;24.40;99.90
22629;DHT22;11481;53.694;9.910;2022-08-21T13:45:50;24.30;99.90
22629;DHT22;11481;53.694;9.910;2022-08-21T13:48:19;24.20;99.90
22629;DHT22;11481;53.694;9.910;2022-08-21T13:50:46;24.30;99.90
22629;DHT22;11481;53.694;9.910;2022-08-21T13:53:33;24.70;99.90
22629;DHT22;11481;53.694;9.910;2022-08-21T13:56:01;25.10;99.90
22629;DHT22;11481;53.694;9.910;2022-08-21T13:58:42;25.10;99.90
22629;DHT22;11481;53.694;9.910;2022-08-21T14:01:23;25.20;99.90
22629;DHT22;11481;53.694;9.910;2022-08-21T14:03:55;25.10;99.90
22629;DHT22;11481;53.694;9.910;2022-08-21T14:06:27;25.20;99.90
22629;DHT22;11481;53.694;9.910;2022-08-21T14:09:03;25.30;99.90
22629;DHT22;11481;53.694;9.910;2022-08-21T14:12:26;25.40;99.90
22629;DHT22;11481;53.694;9.910;2022-08-21T14:19:47;25.60;99.90
22629;DHT22;11481;53.694;9.910;2022-08-21T14:23:28;25.90;99.90
22629;DHT22;11481;53.694;9.910;2022-08-21T14:25:59;25.90;99.90
22629;DHT22;11481;53.694;9.910;2022-08-21T14:28:30;26.00;99.90
22629;DHT22;11481;53.694;9.910;2022-08-21T14:31:12;25.90;99.90
22629;DHT22;11481;53.694;9.910;2022-08-21T14:33:39;26.10;99.90
22629;DHT22;11481;53.694;9.910;2022-08-21T14:36:07;26.30;99.90
22629;DHT22;11481;53.694;9.910;2022-08-21T14:38:36;26.20;99.90
22629;DHT22;11481;53.694;9.910;2022-08-21T14:41:19;26.00;99.90
22629;DHT22;11481;53.694;9.910;2022-08-21T14:43:46;25.90;99.90
22629;DHT22;11481;53.694;9.910;2022-08-21T14:46:24;25.90;99.90
22629;DHT22;11481;53.694;9.910;2022-08-21T14:48:52;26.20;99.90
22629;DHT22;11481;53.694;9.910;2022-08-21T14:51:18;26.50;99.90
22629;DHT22;11481;53.694;9.910;2022-08-21T14:53:46;26.40;99.90
22629;DHT22;11481;53.694;9.910;2022-08-21T14:56:13;26.40;99.90
22629;DHT22;11481;53.694;9.910;2022-08-21T14:58:46;26.50;99.90
22629;DHT22;11481;53.694;9.910;2022-08-21T15:01:16;26.80;99.90
22629;DHT22;11481;53.694;9.910;2022-08-21T15:03:45;26.90;99.90
22629;DHT22;11481;53.694;9.910;2022-08-21T15:06:12;27.20;99.90
22629;DHT22;11481;53.694;9.910;2022-08-21T15:08:39;27.40;99.90
22629;DHT22;11481;53.694;9.910;2022-08-21T15:11:07;27.50;99.90
22629;DHT22;11481;53.694;9.910;2022-08-21T15:13:40;27.10;99.90
22629;DHT22;11481;53.694;9.910;2022-08-21T15:16:10;26.90;99.90
22629;DHT22;11481;53.694;9.910;2022-08-21T15:18:37;26.90;99.90
22629;DHT22;11481;53.694;9.910;2022-08-21T15:21:04;27.00;99.90
22629;DHT22;11481;53.694;9.910;2022-08-21T15:23:31;26.90;99.90
22629;DHT22;11481;53.694;9.910;2022-08-21T15:25:58;26.80;99.90
22629;DHT22;11481;53.694;9.910;2022-08-21T15:28:26;26.70;99.90
22629;DHT22;11481;53.694;9.910;2022-08-21T15:30:59;26.80;99.90
22629;DHT22;11481;53.694;9.910;2022-08-21T15:33:27;26.70;99.90
22629;DHT22;11481;53.694;9.910;2022-08-21T15:35:53;26.40;99.90
22629;DHT22;11481;53.694;9.910;2022-08-21T15:38:20;26.20;99.90
22629;DHT22;11481;53.694;9.910;2022-08-21T15:40:48;26.10;99.90
22629;DHT22;11481;53.694;9.910;2022-08-21T15:43:30;26.10;99.90
22629;DHT22;11481;53.694;9.910;2022-08-21T15:45:58;26.30;99.90
22629;DHT22;11481;53.694;9.910;2022-08-21T15:48:26;26.50;99.90
22629;DHT22;11481;53.694;9.910;2022-08-21T15:50:53;26.70;99.90
22629;DHT22;11481;53.694;9.910;2022-08-21T15:53:21;27.10;99.90
22629;DHT22;11481;53.694;9.910;2022-08-21T15:55:47;27.20;99.90
22629;DHT22;11481;53.694;9.910;2022-08-21T15:58:15;26.80;99.90
22629;DHT22;11481;53.694;9.910;2022-08-21T16:00:44;26.50;99.90
22629;DHT22;11481;53.694;9.910;2022-08-21T16:03:14;26.40;99.90
22629;DHT22;11481;53.694;9.910;2022-08-21T16:05:46;26.40;99.90
22629;DHT22;11481;53.694;9.910;2022-08-21T16:08:16;26.70;99.90
22629;DHT22;11481;53.694;9.910;2022-08-21T16:10:43;27.20;99.90
22629;DHT22;11481;53.694;9.910;2022-08-21T16:13:23;27.80;99.90
22629;DHT22;11481;53.694;9.910;2022-08-21T16:15:51;28.10;99.90
22629;DHT22;11481;53.694;9.910;2022-08-21T16:18:19;28.10;99.90
22629;DHT22;11481;53.694;9.910;2022-08-21T16:20:46;27.80;99.90
22629;DHT22;11481;53.694;9.910;2022-08-21T16:23:13;27.50;99.90
22629;DHT22;11481;53.694;9.910;2022-08-21T16:25:40;27.10;99.90
22629;DHT22;11481;53.694;9.910;2022-08-21T16:28:10;27.10;99.90
22629;DHT22;11481;53.694;9.910;2022-08-21T16:30:39;27.20;99.90
22629;DHT22;11481;53.694;9.910;2022-08-21T16:33:07;27.40;99.90
22629;DHT22;11481;53.694;9.910;2022-08-21T16:35:36;27.30;99.90
22629;DHT22;11481;53.694;9.910;2022-08-21T16:38:03;27.40;99.90
22629;DHT22;11481;53.694;9.910;2022-08-21T16:40:30;27.30;99.90
22629;DHT22;11481;53.694;9.910;2022-08-21T16:42:57;27.20;99.90
22629;DHT22;11481;53.694;9.910;2022-08-21T16:45:23;27.40;99.90
22629;DHT22;11481;53.694;9.910;2022-08-21T16:47:55;27.60;99.90
22629;DHT22;11481;53.694;9.910;2022-08-21T16:50:23;27.40;99.90
22629;DHT22;11481;53.694;9.910;2022-08-21T16:52:50;27.40;99.90
22629;DHT22;11481;53.694;9.910;2022-08-21T16:55:17;27.60;99.90
22629;DHT22;11481;53.694;9.910;2022-08-21T16:57:44;27.80;99.90
22629;DHT22;11481;53.694;9.910;2022-08-21T17:00:11;27.50;99.90
22629;DHT22;11481;53.694;9.910;2022-08-21T17:02:42;27.50;99.90
22629;DHT22;11481;53.694;9.910;2022-08-21T17:05:10;27.60;99.90
22629;DHT22;11481;53.694;9.910;2022-08-21T17:07:40;27.50;99.90
22629;DHT22;11481;53.694;9.910;2022-08-21T17:10:07;27.00;99.90
22629;DHT22;11481;53.694;9.910;2022-08-21T17:12:34;26.90;99.90
22629;DHT22;11481;53.694;9.910;2022-08-21T17:15:23;26.90;99.90
22629;DHT22;11481;53.694;9.910;2022-08-21T17:17:50;26.70;99.90
22629;DHT22;11481;53.694;9.910;2022-08-21T17:20:18;26.70;99.90
22629;DHT22;11481;53.694;9.910;2022-08-21T17:22:45;26.70;99.90